createdAt,value
2022-10-18T00:00:07.551Z,12.32
2022-10-18T00:02:34.040Z,12.27
2022-10-18T00:05:00.534Z,14.30
2022-10-18T00:07:26.877Z,10.70
2022-10-18T00:09:53.435Z,10.52
2022-10-18T00:12:19.829Z,12.25
2022-10-18T00:14:49.395Z,13.88
2022-10-18T00:17:15.753Z,17.90
2022-10-18T00:19:42.103Z,14.15
2022-10-18T00:22:08.450Z,13.50
2022-10-18T00:24:35.290Z,14.05
2022-10-18T00:27:01.617Z,14.65
2022-10-18T00:29:27.955Z,13.90
2022-10-18T00:31:54.281Z,14.25
2022-10-18T00:34:20.618Z,16.55
2022-10-18T00:36:46.993Z,17.85
2022-10-18T00:39:18.879Z,13.52
2022-10-18T00:41:46.473Z,14.38
2022-10-18T00:44:12.792Z,15.27
2022-10-18T00:46:44.097Z,16.80
2022-10-18T00:49:30.738Z,13.88
2022-10-18T00:52:01.165Z,15.35
2022-10-18T00:54:29.842Z,16.75
2022-10-18T00:56:56.599Z,15.60
2022-10-18T00:59:23.501Z,15.32
2022-10-18T01:01:50.429Z,16.40
2022-10-18T01:04:18.943Z,16.63
2022-10-18T01:09:33.399Z,20.98
2022-10-18T01:12:13.871Z,17.42
2022-10-18T01:14:53.502Z,18.15
2022-10-18T01:17:44.106Z,19.90
2022-10-18T01:20:55.607Z,19.15
2022-10-18T01:23:40.971Z,20.58
2022-10-18T01:26:35.859Z,20.05
2022-10-18T01:29:18.372Z,16.73
2022-10-18T01:32:19.031Z,20.67
2022-10-18T01:34:50.074Z,16.58
2022-10-18T01:37:19.970Z,19.17
2022-10-18T01:39:47.959Z,17.67
2022-10-18T01:42:19.506Z,19.73
2022-10-18T01:44:48.194Z,16.45
2022-10-18T01:47:15.612Z,18.92
2022-10-18T01:49:42.114Z,18.02
2022-10-18T01:52:13.341Z,16.45
2022-10-18T01:54:44.780Z,18.60
2022-10-18T01:57:22.660Z,17.88
2022-10-18T02:00:15.403Z,19.33
2022-10-18T02:02:47.279Z,17.08
2022-10-18T02:05:28.783Z,20.33
2022-10-18T02:08:32.773Z,21.90
2022-10-18T02:11:03.723Z,16.38
2022-10-18T02:13:49.944Z,18.17
2022-10-18T02:16:29.664Z,18.85
2022-10-18T02:19:01.343Z,21.70
2022-10-18T02:21:29.173Z,16.65
2022-10-18T02:23:59.109Z,18.23
2022-10-18T02:26:25.825Z,17.05
2022-10-18T02:28:52.373Z,19.42
2022-10-18T02:31:42.765Z,19.88
2022-10-18T02:34:20.386Z,16.95
2022-10-18T02:36:50.226Z,16.90
2022-10-18T02:39:25.123Z,18.95
2022-10-18T02:41:54.282Z,17.95
2022-10-18T02:44:20.746Z,20.83
2022-10-18T02:46:47.794Z,17.08
2022-10-18T02:49:14.139Z,17.98
2022-10-18T02:51:40.665Z,18.25
2022-10-18T02:54:08.301Z,17.88
2022-10-18T02:56:35.466Z,16.92
2022-10-18T02:59:01.847Z,20.52
2022-10-18T03:01:28.301Z,16.67
2022-10-18T03:03:54.675Z,16.02
2022-10-18T03:06:21.081Z,17.50
2022-10-18T03:08:47.495Z,15.52
2022-10-18T03:11:14.175Z,18.33
2022-10-18T03:13:40.591Z,16.88
2022-10-18T03:16:07.045Z,15.70
2022-10-18T03:18:33.491Z,13.80
2022-10-18T03:21:05.445Z,13.30
2022-10-18T03:23:31.961Z,14.93
2022-10-18T03:25:58.409Z,16.25
2022-10-18T03:28:24.952Z,13.52
2022-10-18T03:30:51.347Z,17.48
2022-10-18T03:33:19.673Z,21.52
2022-10-18T03:35:46.046Z,19.88
2022-10-18T03:38:12.448Z,18.58
2022-10-18T03:40:38.798Z,15.85
2022-10-18T03:43:05.150Z,16.65
2022-10-18T03:45:31.806Z,19.77
2022-10-18T03:47:58.323Z,21.00
2022-10-18T03:50:24.754Z,17.73
2022-10-18T03:52:51.092Z,16.05
2022-10-18T03:55:17.513Z,20.13
2022-10-18T03:57:43.877Z,16.83
2022-10-18T04:00:10.853Z,16.90
2022-10-18T04:02:37.235Z,16.92
2022-10-18T04:05:03.977Z,17.05
2022-10-18T04:07:30.423Z,18.05
2022-10-18T04:09:56.835Z,17.08
2022-10-18T04:12:23.287Z,17.15
2022-10-18T04:14:49.621Z,22.23
2022-10-18T04:17:15.985Z,21.80
2022-10-18T04:19:42.382Z,21.73
2022-10-18T04:22:10.391Z,22.67
2022-10-18T04:24:36.855Z,24.20
2022-10-18T04:27:05.116Z,20.63
2022-10-18T04:29:31.577Z,20.35
2022-10-18T04:31:57.948Z,31.23
2022-10-18T04:34:24.319Z,26.10
2022-10-18T04:36:50.904Z,22.35
2022-10-18T04:39:17.659Z,23.80
2022-10-18T04:41:44.043Z,28.20
2022-10-18T04:44:10.516Z,26.55
2022-10-18T04:46:37.021Z,28.13
2022-10-18T04:49:03.670Z,30.75
2022-10-18T04:51:30.291Z,30.83
2022-10-18T04:53:57.051Z,25.30
2022-10-18T04:56:23.462Z,24.20
2022-10-18T04:58:49.832Z,27.42
2022-10-18T05:01:17.154Z,27.67
2022-10-18T05:03:43.585Z,32.95
2022-10-18T05:06:10.761Z,30.00
2022-10-18T05:08:37.376Z,26.58
2022-10-18T05:11:04.322Z,31.05
2022-10-18T05:13:31.052Z,37.45
2022-10-18T05:15:59.401Z,33.17
2022-10-18T05:18:25.882Z,28.83
2022-10-18T05:20:52.249Z,33.53
2022-10-18T05:23:18.586Z,33.03
2022-10-18T05:25:44.975Z,35.65
2022-10-18T05:28:34.668Z,32.35
2022-10-18T05:33:28.350Z,31.52
2022-10-18T05:35:54.882Z,32.38
2022-10-18T05:38:21.438Z,34.25
2022-10-18T05:40:47.863Z,31.00
2022-10-18T05:43:14.178Z,33.72
2022-10-18T05:45:40.601Z,32.90
2022-10-18T05:48:08.145Z,34.33
2022-10-18T05:50:38.062Z,32.95
2022-10-18T05:53:12.520Z,36.45
2022-10-18T05:55:51.092Z,34.50
2022-10-18T05:58:17.465Z,34.78
2022-10-18T06:00:43.795Z,36.95
2022-10-18T06:03:10.402Z,32.75
2022-10-18T06:05:36.754Z,35.47
2022-10-18T06:08:05.318Z,35.42
2022-10-18T06:10:34.531Z,32.33
2022-10-18T06:13:00.941Z,28.88
2022-10-18T06:15:27.299Z,33.60
2022-10-18T06:17:54.029Z,34.38
2022-10-18T06:20:20.411Z,35.67
2022-10-18T06:22:46.787Z,33.72
2022-10-18T06:25:13.208Z,37.85
2022-10-18T06:27:39.574Z,35.85
2022-10-18T06:30:06.604Z,33.70
2022-10-18T06:32:32.947Z,35.33
2022-10-18T06:34:59.274Z,38.38
2022-10-18T06:37:25.863Z,33.97
2022-10-18T06:39:52.249Z,33.58
2022-10-18T06:42:21.828Z,43.10
2022-10-18T06:44:49.821Z,31.88
2022-10-18T06:47:16.144Z,32.25
2022-10-18T06:49:42.539Z,33.25
2022-10-18T06:52:09.612Z,32.10
2022-10-18T06:54:36.036Z,39.83
2022-10-18T06:57:03.098Z,51.15
2022-10-18T06:59:31.331Z,35.20
2022-10-18T07:01:58.091Z,37.90
2022-10-18T07:04:26.850Z,36.50
2022-10-18T07:06:54.342Z,32.72
2022-10-18T07:09:20.775Z,38.22
2022-10-18T07:11:47.144Z,36.92
2022-10-18T07:14:16.306Z,36.30
2022-10-18T07:16:42.946Z,33.80
2022-10-18T07:19:09.417Z,35.97
2022-10-18T07:21:36.221Z,35.58
2022-10-18T07:24:02.632Z,35.17
2022-10-18T07:26:33.009Z,37.72
2022-10-18T07:29:07.565Z,35.10
2022-10-18T07:31:34.771Z,37.30
2022-10-18T07:34:01.319Z,37.65
2022-10-18T07:36:27.720Z,37.92
2022-10-18T07:38:54.451Z,38.47
2022-10-18T07:41:21.710Z,41.03
2022-10-18T07:43:51.004Z,38.92
2022-10-18T07:46:18.790Z,40.10
2022-10-18T07:48:45.520Z,40.17
2022-10-18T07:51:12.706Z,37.85
2022-10-18T07:53:39.256Z,37.10
2022-10-18T07:56:11.386Z,40.45
2022-10-18T07:58:37.796Z,38.92
2022-10-18T08:01:06.604Z,35.53
2022-10-18T08:03:33.756Z,38.60
2022-10-18T08:06:00.272Z,35.45
2022-10-18T08:08:27.629Z,42.42
2022-10-18T08:10:54.710Z,46.88
2022-10-18T08:13:22.254Z,37.47
2022-10-18T08:15:48.976Z,39.03
2022-10-18T08:18:15.408Z,38.30
2022-10-18T08:20:45.530Z,37.83
2022-10-18T08:23:12.399Z,38.28
2022-10-18T08:25:38.902Z,38.92
2022-10-18T08:28:06.691Z,36.92
2022-10-18T08:30:35.068Z,40.33
2022-10-18T08:33:02.132Z,34.65
2022-10-18T08:35:28.546Z,33.58
2022-10-18T08:37:54.968Z,34.90
2022-10-18T08:40:21.575Z,35.38
2022-10-18T08:43:04.749Z,35.55
2022-10-18T08:45:42.353Z,33.72
2022-10-18T08:48:21.719Z,35.05
2022-10-18T08:50:49.646Z,33.85
2022-10-18T08:53:51.100Z,39.78
2022-10-18T08:56:21.588Z,37.22
2022-10-18T08:58:47.981Z,39.75
2022-10-18T09:01:42.648Z,36.33
2022-10-18T09:04:40.891Z,37.58
2022-10-18T09:07:36.751Z,39.70
2022-10-18T09:10:20.597Z,42.92
2022-10-18T09:13:06.894Z,40.10
2022-10-18T09:16:05.915Z,36.67
2022-10-18T09:18:41.930Z,35.83
2022-10-18T09:24:11.239Z,29.90
2022-10-18T09:26:44.593Z,36.92
2022-10-18T09:29:29.306Z,42.75
2022-10-18T09:32:08.058Z,34.28
2022-10-18T09:34:45.887Z,33.75
2022-10-18T09:37:16.075Z,32.30
2022-10-18T09:40:04.698Z,32.92
2022-10-18T09:42:42.150Z,31.05
2022-10-18T09:45:16.632Z,26.92
2022-10-18T09:47:49.983Z,31.60
2022-10-18T09:50:19.327Z,27.23
2022-10-18T09:52:51.693Z,30.17
2022-10-18T09:55:30.630Z,27.00
2022-10-18T09:58:01.982Z,29.08
2022-10-18T10:00:33.651Z,24.38
2022-10-18T10:03:01.885Z,25.33
2022-10-18T10:05:28.245Z,24.38
2022-10-18T10:07:59.827Z,26.90
2022-10-18T10:10:28.778Z,25.63
2022-10-18T10:13:22.191Z,26.80
2022-10-18T10:16:01.545Z,24.38
2022-10-18T10:18:38.042Z,25.35
2022-10-18T10:21:08.064Z,23.80
2022-10-18T10:23:44.450Z,23.75
2022-10-18T10:26:23.893Z,21.73
2022-10-18T10:28:51.092Z,24.60
2022-10-18T10:31:25.056Z,25.55
2022-10-18T10:34:19.934Z,23.08
2022-10-18T10:36:49.543Z,19.50
2022-10-18T10:39:19.223Z,19.92
2022-10-18T10:41:57.027Z,19.95
2022-10-18T10:44:25.822Z,19.85
2022-10-18T10:47:04.785Z,19.88
2022-10-18T10:49:47.480Z,16.83
2022-10-18T10:52:27.755Z,16.98
2022-10-18T10:55:05.887Z,16.60
2022-10-18T10:57:46.097Z,17.63
2022-10-18T11:00:34.150Z,14.32
2022-10-18T11:03:28.600Z,12.55
2022-10-18T11:05:57.805Z,12.02
2022-10-18T11:08:40.954Z,14.23
2022-10-18T11:11:27.676Z,16.08
2022-10-18T11:14:24.808Z,10.68
2022-10-18T11:17:21.621Z,12.35
2022-10-18T11:20:07.374Z,11.65
2022-10-18T11:22:40.713Z,11.32
2022-10-18T11:25:13.315Z,11.52
2022-10-18T11:28:02.006Z,10.05
2022-10-18T11:30:49.796Z,7.60
2022-10-18T11:33:56.352Z,7.88
2022-10-18T11:36:25.050Z,9.98
2022-10-18T11:38:57.612Z,8.70
2022-10-18T11:41:32.579Z,7.95
2022-10-18T11:44:03.630Z,12.38
2022-10-18T11:46:52.059Z,10.55
2022-10-18T11:49:27.931Z,10.68
2022-10-18T11:52:22.308Z,10.35
2022-10-18T11:55:05.179Z,9.23
2022-10-18T11:57:37.502Z,7.07
2022-10-18T12:00:22.812Z,8.32
2022-10-18T12:03:04.662Z,10.05
2022-10-18T12:05:35.407Z,9.32
2022-10-18T12:08:20.556Z,10.02
2022-10-18T12:11:07.962Z,7.80
2022-10-18T12:13:37.425Z,11.23
2022-10-18T12:16:06.816Z,9.38
2022-10-18T12:18:35.939Z,9.73
2022-10-18T12:21:02.486Z,8.07
2022-10-18T12:23:28.951Z,8.13
2022-10-18T12:26:02.371Z,8.70
2022-10-18T12:28:50.772Z,7.05
2022-10-18T12:31:37.817Z,7.38
2022-10-18T12:34:27.004Z,9.75
2022-10-18T12:37:08.378Z,8.13
2022-10-18T12:39:50.442Z,9.15
2022-10-18T12:42:30.947Z,7.72
2022-10-18T12:45:02.805Z,6.85
2022-10-18T12:47:30.951Z,8.38
2022-10-18T12:50:00.302Z,6.22
2022-10-18T12:52:29.594Z,6.80
2022-10-18T12:55:16.704Z,4.78
2022-10-18T12:57:53.508Z,6.57
2022-10-18T13:00:31.965Z,4.40
2022-10-18T13:03:13.554Z,5.22
2022-10-18T13:05:54.931Z,7.38
2022-10-18T13:08:29.265Z,4.63
2022-10-18T13:11:01.733Z,4.65
2022-10-18T13:13:42.188Z,7.00
2022-10-18T13:16:14.425Z,4.43
2022-10-18T13:18:52.871Z,3.60
2022-10-18T13:21:42.173Z,6.25
2022-10-18T13:24:26.129Z,7.07
2022-10-18T13:30:12.938Z,7.35
2022-10-18T13:32:49.487Z,3.67
2022-10-18T13:35:42.580Z,3.60
2022-10-18T13:38:34.777Z,4.80
2022-10-18T13:41:02.256Z,6.40
2022-10-18T13:43:53.328Z,5.55
2022-10-18T13:46:24.942Z,4.75
2022-10-18T13:48:53.091Z,5.05
2022-10-18T13:51:25.448Z,5.43
2022-10-18T13:54:02.620Z,4.40
2022-10-18T13:56:46.044Z,5.82
2022-10-18T13:59:22.648Z,4.95
2022-10-18T14:02:10.664Z,5.82
2022-10-18T14:05:24.634Z,4.95
2022-10-18T14:07:58.201Z,3.05
2022-10-18T14:11:00.854Z,3.72
2022-10-18T14:13:38.655Z,4.32
2022-10-18T14:16:29.955Z,4.05
2022-10-18T14:19:05.030Z,3.42
2022-10-18T14:21:38.180Z,3.90
2022-10-18T14:24:17.552Z,4.78
2022-10-18T14:26:44.056Z,3.92
2022-10-18T14:29:19.050Z,3.53
2022-10-18T14:31:55.124Z,2.23
2022-10-18T14:34:22.155Z,4.03
2022-10-18T14:36:49.791Z,7.68
2022-10-18T14:39:23.932Z,3.63
2022-10-18T14:41:54.267Z,3.70
2022-10-18T14:44:31.695Z,2.88
2022-10-18T14:47:02.005Z,3.55
2022-10-18T14:49:29.392Z,1.65
2022-10-18T14:51:58.905Z,2.75
2022-10-18T14:54:32.769Z,2.65
2022-10-18T14:57:01.370Z,3.75
2022-10-18T14:59:32.181Z,2.30
2022-10-18T15:02:02.107Z,2.42
2022-10-18T15:04:32.932Z,4.50
2022-10-18T15:07:02.975Z,3.60
2022-10-18T15:09:30.270Z,5.13
2022-10-18T15:11:57.948Z,4.15
2022-10-18T15:14:27.442Z,3.00
2022-10-18T15:16:59.633Z,3.35
2022-10-18T15:19:35.999Z,2.25
2022-10-18T15:25:14.814Z,2.58
2022-10-18T15:27:45.337Z,2.92
2022-10-18T15:30:19.724Z,4.75
2022-10-18T15:32:52.152Z,4.47
2022-10-18T15:35:26.164Z,6.65
2022-10-18T15:37:54.433Z,6.65
2022-10-18T15:40:24.635Z,5.90
2022-10-18T15:42:53.842Z,4.43
2022-10-18T15:45:27.763Z,6.60
2022-10-18T15:48:06.376Z,4.68
2022-10-18T15:50:44.352Z,5.65
2022-10-18T15:53:25.966Z,7.65
2022-10-18T15:56:06.124Z,6.15
2022-10-18T15:58:44.581Z,6.45
2022-10-18T16:01:27.759Z,5.82
2022-10-18T16:06:25.410Z,3.80
2022-10-18T16:08:53.081Z,5.57
2022-10-18T16:11:26.410Z,4.97
2022-10-18T16:13:56.446Z,5.43
2022-10-18T16:16:27.463Z,4.95
2022-10-18T16:18:54.411Z,4.70
2022-10-18T16:21:22.307Z,3.83
2022-10-18T16:23:49.742Z,2.92
2022-10-18T16:26:17.548Z,7.68
2022-10-18T16:28:44.433Z,5.07
2022-10-18T16:31:16.813Z,4.05
2022-10-18T16:33:43.650Z,3.17
2022-10-18T16:36:18.299Z,6.00
2022-10-18T16:38:45.830Z,4.47
2022-10-18T16:41:15.962Z,10.75
2022-10-18T16:43:44.362Z,4.05
2022-10-18T16:46:16.906Z,4.43
2022-10-18T16:48:44.361Z,4.97
2022-10-18T16:51:11.453Z,6.28
2022-10-18T16:53:37.922Z,8.32
2022-10-18T16:56:06.409Z,4.20
2022-10-18T16:58:33.501Z,4.95
2022-10-18T17:01:01.818Z,5.10
2022-10-18T17:03:30.454Z,5.20
2022-10-18T17:05:56.843Z,6.72
2022-10-18T17:08:26.359Z,10.07
2022-10-18T17:10:55.593Z,4.07
2022-10-18T17:13:23.479Z,4.63
2022-10-18T17:15:50.908Z,8.50
2022-10-18T17:18:21.641Z,5.43
2022-10-18T17:20:49.058Z,5.32
2022-10-18T17:23:18.620Z,6.43
2022-10-18T17:25:57.885Z,4.53
2022-10-18T17:28:33.349Z,5.90
2022-10-18T17:30:59.731Z,7.70
2022-10-18T17:33:26.356Z,5.50
2022-10-18T17:35:52.781Z,7.70
2022-10-18T17:38:19.117Z,7.90
2022-10-18T17:40:45.456Z,6.43
2022-10-18T17:43:13.620Z,4.15
2022-10-18T17:45:53.419Z,8.40
2022-10-18T17:48:19.763Z,4.72
2022-10-18T17:50:46.154Z,4.90
2022-10-18T17:53:13.122Z,7.68
2022-10-18T17:55:40.294Z,5.32
2022-10-18T17:58:06.704Z,5.40
2022-10-18T18:00:33.064Z,21.02
2022-10-18T18:03:00.754Z,11.93
2022-10-18T18:05:32.171Z,13.00
2022-10-18T18:08:02.943Z,7.13
2022-10-18T18:10:33.041Z,9.80
2022-10-18T18:12:59.661Z,5.80
2022-10-18T18:15:26.096Z,5.03
2022-10-18T18:17:57.135Z,6.68
2022-10-18T18:20:24.375Z,7.90
2022-10-18T18:22:52.101Z,7.47
2022-10-18T18:25:18.736Z,9.55
2022-10-18T18:27:45.141Z,8.10
2022-10-18T18:30:11.761Z,11.43
2022-10-18T18:32:38.121Z,7.47
2022-10-18T18:35:04.963Z,6.88
2022-10-18T18:37:31.394Z,8.10
2022-10-18T18:39:57.763Z,8.27
2022-10-18T18:42:24.202Z,7.38
2022-10-18T18:44:53.595Z,7.95
2022-10-18T18:47:23.130Z,7.80
2022-10-18T18:49:49.854Z,9.85
2022-10-18T18:52:16.226Z,7.25
2022-10-18T18:54:42.643Z,8.95
2022-10-18T18:57:12.514Z,7.10
2022-10-18T18:59:39.020Z,10.40
2022-10-18T19:02:05.386Z,9.40
2022-10-18T19:04:31.795Z,6.95
2022-10-18T19:06:58.178Z,8.60
2022-10-18T19:09:26.469Z,7.38
2022-10-18T19:11:55.235Z,4.82
2022-10-18T19:14:41.270Z,8.38
2022-10-18T19:17:07.876Z,6.28
2022-10-18T19:19:34.302Z,4.85
2022-10-18T19:22:05.055Z,3.65
2022-10-18T19:24:32.573Z,7.35
2022-10-18T19:27:01.759Z,5.07
2022-10-18T19:29:33.983Z,4.88
2022-10-18T19:32:02.491Z,6.68
2022-10-18T19:34:30.443Z,6.63
2022-10-18T19:36:57.635Z,5.93
2022-10-18T19:39:29.885Z,9.52
2022-10-18T19:41:58.340Z,5.22
2022-10-18T19:44:28.362Z,11.30
2022-10-18T19:46:55.317Z,5.80
2022-10-18T19:49:21.781Z,9.57
2022-10-18T19:51:48.217Z,7.55
2022-10-18T19:54:15.745Z,3.83
2022-10-18T19:56:43.442Z,6.55
2022-10-18T19:59:11.255Z,5.97
2022-10-18T20:01:38.645Z,5.45
2022-10-18T20:04:06.524Z,9.25
2022-10-18T20:06:33.226Z,8.30
2022-10-18T20:08:59.789Z,3.95
2022-10-18T20:11:28.072Z,5.75
2022-10-18T20:13:55.819Z,9.00
2022-10-18T20:16:28.138Z,6.95
2022-10-18T20:19:00.607Z,6.72
2022-10-18T20:21:28.565Z,4.40
2022-10-18T20:23:55.438Z,3.40
2022-10-18T20:26:22.981Z,9.60
2022-10-18T20:28:58.101Z,5.93
2022-10-18T20:31:29.495Z,11.85
2022-10-18T20:34:01.227Z,6.82
2022-10-18T20:36:30.110Z,4.93
2022-10-18T20:38:56.926Z,7.20
2022-10-18T20:41:28.887Z,6.43
2022-10-18T20:44:00.656Z,10.88
2022-10-18T20:46:29.765Z,7.03
2022-10-18T20:48:56.283Z,5.85
2022-10-18T20:51:23.322Z,4.38
2022-10-18T20:53:50.177Z,7.57
2022-10-18T20:56:20.404Z,5.53
2022-10-18T20:58:48.740Z,6.47
2022-10-18T21:01:19.087Z,6.95
2022-10-18T21:03:47.491Z,7.88
2022-10-18T21:06:19.561Z,5.35
2022-10-18T21:08:46.482Z,6.07
2022-10-18T21:11:14.175Z,6.70
2022-10-18T21:13:43.184Z,7.55
2022-10-18T21:16:09.584Z,4.88
2022-10-18T21:18:37.172Z,4.70
2022-10-18T21:21:26.823Z,5.57
2022-10-18T21:23:53.565Z,8.68
2022-10-18T21:26:23.098Z,4.78
2022-10-18T21:28:54.639Z,7.60
2022-10-18T21:31:23.292Z,6.43
2022-10-18T21:34:00.448Z,5.90
2022-10-18T21:36:29.896Z,7.60
2022-10-18T21:38:56.307Z,8.68
2022-10-18T21:41:22.953Z,10.10
2022-10-18T21:43:51.770Z,7.88
2022-10-18T21:46:19.496Z,5.13
2022-10-18T21:48:48.183Z,5.43
2022-10-18T21:51:20.302Z,5.38
2022-10-18T21:53:49.716Z,6.50
2022-10-18T21:56:22.064Z,5.50
2022-10-18T21:58:48.934Z,6.32
2022-10-18T22:01:18.339Z,6.57
2022-10-18T22:03:47.647Z,5.82
2022-10-18T22:06:14.938Z,7.80
2022-10-18T22:08:43.493Z,4.53
2022-10-18T22:11:10.472Z,4.38
2022-10-18T22:13:36.849Z,4.85
2022-10-18T22:16:04.778Z,6.93
2022-10-18T22:18:32.399Z,4.32
2022-10-18T22:21:01.655Z,8.48
2022-10-18T22:23:35.467Z,6.20
2022-10-18T22:26:11.320Z,5.78
2022-10-18T22:31:06.250Z,6.45
2022-10-18T22:33:32.691Z,4.65
2022-10-18T22:35:59.065Z,4.70
2022-10-18T22:38:25.996Z,7.22
2022-10-18T22:40:52.333Z,5.72
2022-10-18T22:43:18.734Z,4.88
2022-10-18T22:45:45.097Z,3.70
2022-10-18T22:48:11.410Z,5.18
2022-10-18T22:50:37.740Z,3.75
2022-10-18T22:53:04.116Z,5.15
2022-10-18T22:55:30.464Z,5.70
2022-10-18T22:57:56.790Z,6.65
2022-10-18T23:00:23.222Z,5.53
2022-10-18T23:02:49.898Z,6.65
2022-10-18T23:05:16.274Z,5.63
2022-10-18T23:07:47.673Z,3.85
2022-10-18T23:10:14.128Z,5.40
2022-10-18T23:12:40.555Z,8.32
2022-10-18T23:15:07.633Z,5.88
2022-10-18T23:17:34.180Z,6.03
2022-10-18T23:20:00.707Z,6.68
2022-10-18T23:22:27.066Z,4.63
2022-10-18T23:24:53.381Z,4.30
2022-10-18T23:27:19.734Z,3.67
2022-10-18T23:29:46.119Z,5.38
2022-10-18T23:32:12.493Z,3.50
2022-10-18T23:34:38.851Z,4.57
2022-10-18T23:37:05.327Z,5.60
2022-10-18T23:39:31.649Z,4.38
2022-10-18T23:41:57.985Z,3.60
2022-10-18T23:44:24.407Z,4.40
2022-10-18T23:46:50.731Z,5.45
2022-10-18T23:49:17.067Z,3.40
2022-10-18T23:51:43.404Z,4.03
2022-10-18T23:54:09.809Z,3.63
2022-10-18T23:56:38.499Z,3.60
2022-10-18T23:59:04.879Z,2.95
